Time;durP1;ratioP1;P1;durP2;ratioP2;P2;SDS_P1;SDS_P2;PMS_P1;PMS_P2;Temp;Humidity;BMP_temperature;BMP_pressure;BME280_temperature;BME280_humidity;BME280_pressure;Samples;Min_cycle;Max_cycle;Signal;HPM_P1;HPM_P2
2020/12/18 06:02:23;;;;;;;;;;;;;;;;;;5061270;27;20444;-59
2020/12/18 06:05:04;;;;;;;2.20;0.50;;;;;;;;;;5051090;28;19915;-61
2020/12/18 06:07:52;;;;;;;1.55;0.30;;;;;;;;;;5034448;28;20033;-61
2020/12/18 06:10:25;;;;;;;4.00;0.90;;;;;;;;;;5042553;28;20599;-61
2020/12/18 06:13:17;;;;;;;3.10;0.30;;;;;;;;;;5043213;28;20057;-61
2020/12/18 06:15:53;;;;;;;1.00;0.40;;;;;;;;;;5027152;28;20079;-60
2020/12/18 06:18:31;;;;;;;1.50;0.43;;;;;;;;;;5028155;28;20088;-62
2020/12/18 06:21:03;;;;;;;0.88;0.43;;;;;;;;;;5028064;28;20544;-61
2020/12/18 06:23:29;;;;;;;1.92;0.60;;;;;;;;;;5035281;28;20048;-60
2020/12/18 06:26:13;;;;;;;3.50;0.40;;;;;;;;;;5032528;28;20026;-57
2020/12/18 06:29:04;;;;;;;1.40;0.30;;;;;;;;;;5028599;28;20029;-56
2020/12/18 06:31:35;;;;;;;1.48;0.40;;;;;;;;;;5022037;28;20104;-60
2020/12/18 06:34:24;;;;;;;2.08;0.30;;;;;;;;;;5033319;28;20033;-57
2020/12/18 06:37:30;;;;;;;1.33;0.40;;;;;;;;;;5018497;28;20037;-57
2020/12/18 06:40:27;;;;;;;0.98;0.40;;;;;;;;;;5031325;28;20037;-53
2020/12/18 06:43:35;;;;;;;0.93;0.43;;;;;;;;;;5022585;28;20037;-56
2020/12/18 06:46:24;;;;;;;1.85;0.40;;;;;;;;;;5031647;28;20037;-54
2020/12/18 06:49:09;;;;;;;1.52;0.30;;;;;;;;;;5032037;28;20060;-54
2020/12/18 06:51:53;;;;;;;5.50;0.85;;;;;;;;;;5029086;28;20051;-54
2020/12/18 06:54:34;;;;;;;1.90;0.40;;;;;;;;;;5050272;28;20021;-54
2020/12/18 06:57:21;;;;;;;1.48;0.47;;;;;;;;;;5055039;28;20087;-56
2020/12/18 06:59:49;;;;;;;3.10;0.40;;;;;;;;;;5052103;28;20393;-66
2020/12/18 07:02:34;;;;;;;1.27;0.30;;;;;;;;;;5042274;28;20417;-66
2020/12/18 07:05:01;;;;;;;3.53;0.68;;;;;;;;;;5039602;28;20493;-59
2020/12/18 07:07:27;;;;;;;1.00;0.20;;;;;;;;;;5042050;28;20033;-56
2020/12/18 07:09:53;;;;;;;1.20;0.40;;;;;;;;;;5033245;28;21909;-58
2020/12/18 07:12:21;;;;;;;2.47;0.50;;;;;;;;;;5032624;28;20029;-57
2020/12/18 07:14:50;;;;;;;1.92;0.50;;;;;;;;;;5026582;28;20029;-57
2020/12/18 07:17:17;;;;;;;2.95;0.60;;;;;;;;;;5029541;28;20042;-56
2020/12/18 07:19:43;;;;;;;1.40;0.40;;;;;;;;;;5031294;28;20052;-57
2020/12/18 07:22:14;;;;;;;4.43;0.43;;;;;;;;;;5030543;28;20121;-58
2020/12/18 07:24:41;;;;;;;1.67;0.50;;;;;;;;;;5032280;28;20033;-57
2020/12/18 07:27:07;;;;;;;3.53;0.50;;;;;;;;;;5031651;28;20298;-56
2020/12/18 07:29:33;;;;;;;2.05;0.50;;;;;;;;;;5029717;28;20022;-57
2020/12/18 07:31:59;;;;;;;0.93;0.43;;;;;;;;;;5029587;28;20042;-56
2020/12/18 07:34:25;;;;;;;0.93;0.50;;;;;;;;;;5029301;28;20017;-59
2020/12/18 07:36:51;;;;;;;2.25;0.75;;;;;;;;;;5030296;28;20034;-57
2020/12/18 07:39:17;;;;;;;2.75;0.70;;;;;;;;;;5032752;28;20411;-57
2020/12/18 07:41:44;;;;;;;1.30;0.80;;;;;;;;;;5030811;28;20060;-56
2020/12/18 07:44:10;;;;;;;2.53;0.95;;;;;;;;;;5031069;28;20398;-57
2020/12/18 07:46:37;;;;;;;2.25;0.82;;;;;;;;;;5028476;28;20061;-57
2020/12/18 07:49:10;;;;;;;3.28;1.20;;;;;;;;;;5030230;28;20021;-57
2020/12/18 07:51:36;;;;;;;2.17;0.77;;;;;;;;;;5031360;28;20041;-55
2020/12/18 07:54:02;;;;;;;1.88;0.90;;;;;;;;;;5031365;28;20108;-58
2020/12/18 07:56:29;;;;;;;1.95;0.70;;;;;;;;;;5029214;28;20449;-56
2020/12/18 07:58:57;;;;;;;1.00;0.70;;;;;;;;;;5028951;28;20057;-60
2020/12/18 08:01:30;;;;;;;1.92;0.90;;;;;;;;;;5028268;28;20414;-62
2020/12/18 08:04:00;;;;;;;0.85;0.60;;;;;;;;;;5025189;28;20017;-55
2020/12/18 08:06:28;;;;;;;1.23;0.77;;;;;;;;;;5030982;28;20448;-61
2020/12/18 08:08:55;;;;;;;2.03;0.90;;;;;;;;;;5031054;28;20040;-63
2020/12/18 08:11:22;;;;;;;1.23;0.70;;;;;;;;;;5028776;28;20095;-64
2020/12/18 08:13:49;;;;;;;1.73;0.70;;;;;;;;;;5029280;28;20032;-61
2020/12/18 08:16:16;;;;;;;1.13;0.52;;;;;;;;;;5030224;28;20033;-57
2020/12/18 08:18:51;;;;;;;1.38;0.40;;;;;;;;;;5030623;28;20823;-57
2020/12/18 08:21:36;;;;;;;2.17;0.45;;;;;;;;;;5031511;28;20033;-58
2020/12/18 08:24:03;;;;;;;1.42;0.40;;;;;;;;;;5027602;28;20079;-58
2020/12/18 08:26:32;;;;;;;0.68;0.40;;;;;;;;;;5029724;28;20124;-58
2020/12/18 08:28:59;;;;;;;0.43;0.30;;;;;;;;;;5026893;28;20088;-56
2020/12/18 08:31:26;;;;;;;0.88;0.43;;;;;;;;;;5028738;28;20152;-58
2020/12/18 08:33:53;;;;;;;0.70;0.35;;;;;;;;;;5028825;28;20025;-58
2020/12/18 08:36:23;;;;;;;1.08;0.32;;;;;;;;;;5031603;28;20025;-58
2020/12/18 08:39:05;;;;;;;0.73;0.38;;;;;;;;;;5029426;28;20081;-58
2020/12/18 08:41:41;;;;;;;4.53;0.70;;;;;;;;;;5022178;28;20052;-58
2020/12/18 08:44:11;;;;;;;1.65;0.60;;;;;;;;;;5023333;28;20478;-57
2020/12/18 08:46:38;;;;;;;2.53;0.50;;;;;;;;;;5027838;28;20495;-57
2020/12/18 08:49:20;;;;;;;1.75;0.55;;;;;;;;;;5029723;28;20028;-57
2020/12/18 08:51:50;;;;;;;1.60;0.40;;;;;;;;;;5029163;28;20920;-60
2020/12/18 08:54:29;;;;;;;2.33;0.70;;;;;;;;;;5031018;28;20049;-58
2020/12/18 08:57:13;;;;;;;3.40;0.70;;;;;;;;;;5028708;28;20033;-57
2020/12/18 08:59:40;;;;;;;1.85;0.60;;;;;;;;;;5027908;28;20029;-58
2020/12/18 09:02:16;;;;;;;2.88;0.52;;;;;;;;;;5028447;28;20041;-58
2020/12/18 09:04:42;;;;;;;3.47;0.80;;;;;;;;;;5028477;28;20030;-58
2020/12/18 09:07:08;;;;;;;2.35;0.50;;;;;;;;;;5028911;28;20156;-57
2020/12/18 09:09:34;;;;;;;3.22;0.70;;;;;;;;;;5029897;28;20414;-59
2020/12/18 09:12:16;;;;;;;7.00;0.95;;;;;;;;;;5028829;28;20041;-57
2020/12/18 09:14:42;;;;;;;4.70;1.02;;;;;;;;;;5027345;28;20076;-59
2020/12/18 09:17:08;;;;;;;4.78;1.38;;;;;;;;;;5028527;28;20371;-59
2020/12/18 09:19:44;;;;;;;6.07;0.82;;;;;;;;;;5018411;28;20449;-57
2020/12/18 09:22:10;;;;;;;5.65;0.90;;;;;;;;;;5027731;28;20356;-59
2020/12/18 09:24:36;;;;;;;11.23;1.20;;;;;;;;;;5029480;28;20462;-57
2020/12/18 09:27:12;;;;;;;2.25;0.90;;;;;;;;;;5028436;28;20022;-57
2020/12/18 09:29:38;;;;;;;4.03;1.02;;;;;;;;;;5027051;28;20033;-58
2020/12/18 09:32:05;;;;;;;5.82;1.13;;;;;;;;;;5027583;28;20538;-59
2020/12/18 09:34:32;;;;;;;4.38;1.60;;;;;;;;;;5027395;28;20112;-58
2020/12/18 09:36:58;;;;;;;6.57;1.65;;;;;;;;;;5027496;28;20026;-58
2020/12/18 09:39:25;;;;;;;8.13;1.30;;;;;;;;;;5031113;28;20367;-58
2020/12/18 09:41:52;;;;;;;6.85;0.90;;;;;;;;;;5027476;28;20406;-59
2020/12/18 09:44:18;;;;;;;4.35;1.10;;;;;;;;;;5026221;28;20542;-57
2020/12/18 09:46:44;;;;;;;4.60;1.30;;;;;;;;;;5026549;28;20025;-58
2020/12/18 09:49:11;;;;;;;4.45;1.00;;;;;;;;;;5029509;28;20018;-59
2020/12/18 09:51:37;;;;;;;6.22;1.30;;;;;;;;;;5029344;28;20128;-58
2020/12/18 09:54:03;;;;;;;4.55;1.73;;;;;;;;;;5028553;28;20082;-57
2020/12/18 09:56:29;;;;;;;10.25;1.55;;;;;;;;;;5027418;28;20187;-59
2020/12/18 09:58:55;;;;;;;8.40;1.65;;;;;;;;;;5026298;28;20033;-58
2020/12/18 10:01:23;;;;;;;6.00;1.13;;;;;;;;;;5026536;28;20414;-57
2020/12/18 10:03:50;;;;;;;10.93;1.60;;;;;;;;;;5027074;28;20033;-57
2020/12/18 10:06:16;;;;;;;8.25;1.55;;;;;;;;;;5029813;28;20065;-58
2020/12/18 10:08:42;;;;;;;12.55;1.60;;;;;;;;;;5029257;28;20044;-58
2020/12/18 10:11:08;;;;;;;8.00;1.50;;;;;;;;;;5028065;28;20045;-59
2020/12/18 10:13:35;;;;;;;6.75;1.50;;;;;;;;;;5027876;28;20112;-58
2020/12/18 10:16:01;;;;;;;6.78;1.77;;;;;;;;;;5026638;28;20398;-59
2020/12/18 10:18:27;;;;;;;11.52;2.22;;;;;;;;;;5028757;28;20014;-57
2020/12/18 10:20:54;;;;;;;6.68;1.77;;;;;;;;;;5028780;28;20095;-59
2020/12/18 10:23:20;;;;;;;13.50;1.77;;;;;;;;;;5027691;28;20029;-58
2020/12/18 10:25:46;;;;;;;6.53;1.20;;;;;;;;;;5026955;28;20029;-59
2020/12/18 10:28:13;;;;;;;11.93;1.55;;;;;;;;;;5026469;28;20026;-59
2020/12/18 10:30:39;;;;;;;6.47;1.27;;;;;;;;;;5029196;28;20046;-55
2020/12/18 10:33:05;;;;;;;10.25;1.73;;;;;;;;;;5027806;28;20025;-58
2020/12/18 10:35:31;;;;;;;5.60;1.38;;;;;;;;;;5028089;28;20026;-56
2020/12/18 10:38:00;;;;;;;7.72;1.50;;;;;;;;;;5028834;28;20078;-55
2020/12/18 10:40:27;;;;;;;8.30;1.52;;;;;;;;;;5031433;28;20037;-57
2020/12/18 10:42:54;;;;;;;10.82;1.88;;;;;;;;;;5030988;28;20048;-56
2020/12/18 10:45:21;;;;;;;5.30;1.25;;;;;;;;;;5033695;28;20044;-56
2020/12/18 10:47:47;;;;;;;8.68;1.40;;;;;;;;;;5030041;28;20021;-53
2020/12/18 10:50:13;;;;;;;7.30;1.40;;;;;;;;;;5027638;28;20368;-57
2020/12/18 10:52:39;;;;;;;5.45;1.52;;;;;;;;;;5021876;28;20382;-55
2020/12/18 10:55:05;;;;;;;5.68;1.25;;;;;;;;;;5030424;28;20101;-53
2020/12/18 10:57:31;;;;;;;6.47;1.27;;;;;;;;;;5033006;28;20048;-56
2020/12/18 10:59:57;;;;;;;9.73;2.40;;;;;;;;;;5030782;28;20037;-55
2020/12/18 11:02:23;;;;;;;5.90;1.42;;;;;;;;;;5031316;28;20517;-55
2020/12/18 11:04:50;;;;;;;7.55;1.17;;;;;;;;;;5030015;28;20037;-57
2020/12/18 11:07:16;;;;;;;5.15;1.33;;;;;;;;;;5029436;28;20050;-55
2020/12/18 11:09:43;;;;;;;7.63;1.27;;;;;;;;;;5031576;28;20442;-53
2020/12/18 11:12:09;;;;;;;7.25;1.30;;;;;;;;;;5031295;28;20041;-56
2020/12/18 11:14:37;;;;;;;6.88;1.10;;;;;;;;;;5030821;28;20061;-57
2020/12/18 11:17:03;;;;;;;7.75;1.20;;;;;;;;;;5031131;28;20537;-56
2020/12/18 11:19:29;;;;;;;4.68;1.05;;;;;;;;;;5029675;28;20053;-57
2020/12/18 11:21:55;;;;;;;5.18;1.40;;;;;;;;;;5015550;28;20398;-56
2020/12/18 11:24:21;;;;;;;5.72;1.35;;;;;;;;;;5033133;28;20060;-56
2020/12/18 11:26:51;;;;;;;18.55;2.38;;;;;;;;;;5029548;28;20108;-56
2020/12/18 11:29:17;;;;;;;11.80;1.42;;;;;;;;;;5029308;28;20082;-56
2020/12/18 11:31:43;;;;;;;3.25;1.10;;;;;;;;;;5030521;28;20103;-56
2020/12/18 11:34:10;;;;;;;7.88;1.25;;;;;;;;;;5030166;28;20075;-56
2020/12/18 11:36:36;;;;;;;5.50;1.00;;;;;;;;;;5031786;28;20052;-56
2020/12/18 11:39:04;;;;;;;7.00;1.77;;;;;;;;;;5032123;28;20458;-54
2020/12/18 11:41:30;;;;;;;10.10;1.63;;;;;;;;;;5028968;28;20025;-56
2020/12/18 11:43:56;;;;;;;9.32;2.08;;;;;;;;;;5028402;28;20423;-56
2020/12/18 11:46:22;;;;;;;8.52;1.75;;;;;;;;;;5030672;28;20041;-56
2020/12/18 11:48:48;;;;;;;9.35;1.60;;;;;;;;;;5030029;28;20026;-56
2020/12/18 11:51:15;;;;;;;5.88;1.73;;;;;;;;;;5031347;28;20033;-56
2020/12/18 11:53:41;;;;;;;10.75;1.95;;;;;;;;;;5030247;28;20028;-56
2020/12/18 11:56:08;;;;;;;9.98;1.60;;;;;;;;;;5028981;28;20109;-54
2020/12/18 11:58:35;;;;;;;9.98;1.45;;;;;;;;;;5028636;28;20379;-56
2020/12/18 12:01:01;;;;;;;8.88;1.67;;;;;;;;;;5030620;28;20033;-57
2020/12/18 12:03:31;;;;;;;9.38;1.75;;;;;;;;;;5030283;28;20029;-57
2020/12/18 12:05:57;;;;;;;9.73;1.70;;;;;;;;;;5030885;28;20025;-56
2020/12/18 12:08:23;;;;;;;10.77;2.03;;;;;;;;;;5028411;28;20156;-55
2020/12/18 12:10:49;;;;;;;13.32;1.85;;;;;;;;;;5029872;28;20418;-56
2020/12/18 12:13:15;;;;;;;4.68;1.20;;;;;;;;;;5028456;28;20535;-55
2020/12/18 12:15:41;;;;;;;7.53;1.98;;;;;;;;;;5030475;28;20017;-57
2020/12/18 12:18:07;;;;;;;4.85;1.27;;;;;;;;;;5031615;28;20513;-57
2020/12/18 12:20:33;;;;;;;10.82;2.33;;;;;;;;;;5028630;28;20079;-56
2020/12/18 12:23:00;;;;;;;7.65;1.88;;;;;;;;;;5029445;28;20018;-57
2020/12/18 12:25:26;;;;;;;8.02;1.45;;;;;;;;;;5028694;28;20148;-63
2020/12/18 12:27:52;;;;;;;9.73;1.65;;;;;;;;;;5029855;28;20446;-62
2020/12/18 12:30:18;;;;;;;11.73;1.70;;;;;;;;;;5031703;28;20041;-55
2020/12/18 12:32:44;;;;;;;8.10;1.70;;;;;;;;;;5029266;28;20537;-56
2020/12/18 12:35:11;;;;;;;8.18;1.70;;;;;;;;;;5028265;28;20029;-55
2020/12/18 12:37:37;;;;;;;12.25;1.35;;;;;;;;;;5029643;28;20064;-55
2020/12/18 12:40:03;;;;;;;10.07;1.83;;;;;;;;;;5028208;28;20029;-54
2020/12/18 12:42:30;;;;;;;13.52;2.33;;;;;;;;;;5031255;28;20079;-55
2020/12/18 12:44:56;;;;;;;8.50;2.10;;;;;;;;;;5028620;28;20036;-52
2020/12/18 12:47:22;;;;;;;7.80;1.92;;;;;;;;;;5022691;28;20104;-52
2020/12/18 12:49:48;;;;;;;8.38;2.08;;;;;;;;;;5017666;28;20561;-56
2020/12/18 12:52:14;;;;;;;9.27;2.00;;;;;;;;;;5027622;28;20034;-57
2020/12/18 12:54:40;;;;;;;12.75;2.45;;;;;;;;;;5014925;28;20030;-57
2020/12/18 12:57:06;;;;;;;11.45;2.10;;;;;;;;;;5029007;28;20449;-57
2020/12/18 12:59:32;;;;;;;14.82;2.55;;;;;;;;;;5027099;28;20017;-56
2020/12/18 13:01:58;;;;;;;12.13;1.60;;;;;;;;;;5028472;28;20052;-53
2020/12/18 13:04:26;;;;;;;13.38;2.20;;;;;;;;;;5027857;28;20028;-58
2020/12/18 13:06:52;;;;;;;13.50;2.28;;;;;;;;;;5014333;28;20025;-55
2020/12/18 13:09:18;;;;;;;10.85;2.60;;;;;;;;;;5030485;28;20025;-55
2020/12/18 13:11:44;;;;;;;15.13;2.25;;;;;;;;;;5027826;28;20535;-54
2020/12/18 13:14:11;;;;;;;12.98;2.55;;;;;;;;;;5027356;28;20105;-55
2020/12/18 13:16:37;;;;;;;20.73;3.47;;;;;;;;;;5026910;28;20028;-57
2020/12/18 13:19:03;;;;;;;15.65;3.10;;;;;;;;;;5028109;28;20444;-54
2020/12/18 13:21:30;;;;;;;11.02;1.90;;;;;;;;;;5030612;28;20083;-55
2020/12/18 13:23:57;;;;;;;14.55;2.35;;;;;;;;;;5027752;28;20080;-54
2020/12/18 13:26:23;;;;;;;17.02;2.38;;;;;;;;;;5028746;28;20433;-56
2020/12/18 13:28:50;;;;;;;10.07;2.25;;;;;;;;;;5027107;28;20394;-53
2020/12/18 13:31:17;;;;;;;19.33;3.13;;;;;;;;;;5027188;28;20029;-57
2020/12/18 13:33:43;;;;;;;14.65;2.30;;;;;;;;;;5029823;28;20108;-56
2020/12/18 13:36:09;;;;;;;14.10;2.33;;;;;;;;;;5028583;28;20045;-52
2020/12/18 13:38:35;;;;;;;15.27;2.30;;;;;;;;;;5026998;28;20041;-56
2020/12/18 13:41:01;;;;;;;14.57;2.25;;;;;;;;;;5026689;28;20017;-57
2020/12/18 13:43:28;;;;;;;16.83;2.50;;;;;;;;;;5018073;28;20815;-55
2020/12/18 13:45:54;;;;;;;12.32;2.53;;;;;;;;;;5027964;28;20398;-56
2020/12/18 13:48:20;;;;;;;15.27;2.53;;;;;;;;;;5030031;28;20583;-59
2020/12/18 13:50:47;;;;;;;8.82;1.83;;;;;;;;;;5027849;28;20045;-60
2020/12/18 13:53:13;;;;;;;14.98;1.90;;;;;;;;;;5028696;28;20024;-57
2020/12/18 13:55:40;;;;;;;10.77;1.55;;;;;;;;;;5026834;28;20393;-59
2020/12/18 13:58:06;;;;;;;10.35;1.98;;;;;;;;;;5027220;28;20128;-59
2020/12/18 14:00:33;;;;;;;10.98;2.00;;;;;;;;;;5028021;28;20454;-65
2020/12/18 14:03:00;;;;;;;7.93;1.73;;;;;;;;;;5029380;28;20029;-63
2020/12/18 14:05:26;;;;;;;10.75;2.35;;;;;;;;;;5026598;28;20033;-55
2020/12/18 14:07:52;;;;;;;14.38;2.13;;;;;;;;;;5026749;28;20033;-57
2020/12/18 14:10:18;;;;;;;15.52;2.38;;;;;;;;;;5026789;28;20495;-57
2020/12/18 14:12:44;;;;;;;11.35;1.80;;;;;;;;;;5031111;28;20079;-57
2020/12/18 14:15:10;;;;;;;8.48;1.60;;;;;;;;;;5032877;28;20043;-55
2020/12/18 14:17:36;;;;;;;9.38;1.90;;;;;;;;;;5030411;28;20034;-57
2020/12/18 14:20:03;;;;;;;14.23;2.33;;;;;;;;;;5030567;28;20052;-59
2020/12/18 14:22:29;;;;;;;12.35;3.03;;;;;;;;;;5030756;28;20032;-57
2020/12/18 14:24:55;;;;;;;12.73;1.90;;;;;;;;;;5031105;28;20033;-58
2020/12/18 14:27:22;;;;;;;8.93;1.40;;;;;;;;;;5034029;28;20156;-57
2020/12/18 14:29:48;;;;;;;13.52;2.28;;;;;;;;;;5031514;28;20021;-56
2020/12/18 14:32:14;;;;;;;8.55;1.83;;;;;;;;;;5030400;28;20048;-57
2020/12/18 14:34:40;;;;;;;16.75;2.03;;;;;;;;;;5030090;28;20399;-58
2020/12/18 14:37:09;;;;;;;13.43;1.90;;;;;;;;;;5029912;28;20435;-58
2020/12/18 14:39:36;;;;;;;10.27;1.75;;;;;;;;;;5032507;28;20025;-58
2020/12/18 14:42:02;;;;;;;13.75;2.47;;;;;;;;;;5028440;28;20029;-57
2020/12/18 14:44:28;;;;;;;16.17;2.75;;;;;;;;;;5032144;28;20029;-55
2020/12/18 14:46:54;;;;;;;12.65;1.60;;;;;;;;;;5030345;28;20033;-56
2020/12/18 14:49:20;;;;;;;10.05;1.77;;;;;;;;;;5029793;28;20017;-56
2020/12/18 14:51:46;;;;;;;17.70;2.22;;;;;;;;;;5032035;28;20037;-58
2020/12/18 14:54:13;;;;;;;14.32;1.92;;;;;;;;;;5032502;28;20037;-57
2020/12/18 14:56:39;;;;;;;13.65;2.10;;;;;;;;;;5029697;28;20033;-56
2020/12/18 14:59:05;;;;;;;11.23;1.73;;;;;;;;;;5029685;28;20026;-57
2020/12/18 15:01:31;;;;;;;13.68;2.22;;;;;;;;;;5030216;28;20136;-56
2020/12/18 15:03:57;;;;;;;18.10;2.72;;;;;;;;;;5014382;28;20220;-57
2020/12/18 15:06:23;;;;;;;9.90;2.20;;;;;;;;;;5033316;28;20037;-57
2020/12/18 15:08:51;;;;;;;12.15;1.88;;;;;;;;;;5031105;28;20030;-58
2020/12/18 15:11:17;;;;;;;15.13;2.58;;;;;;;;;;5029284;28;20029;-56
2020/12/18 15:13:43;;;;;;;11.55;2.20;;;;;;;;;;5029985;28;20026;-58
2020/12/18 15:16:09;;;;;;;15.55;2.50;;;;;;;;;;5029667;28;20058;-57
2020/12/18 15:18:35;;;;;;;13.75;2.67;;;;;;;;;;5031947;28;20029;-56
2020/12/18 15:21:01;;;;;;;14.38;2.20;;;;;;;;;;5031611;28;20028;-57
2020/12/18 15:23:28;;;;;;;14.07;1.77;;;;;;;;;;5029147;28;20028;-56
2020/12/18 15:25:54;;;;;;;12.05;2.10;;;;;;;;;;5028624;28;20099;-58
2020/12/18 15:28:20;;;;;;;13.90;1.55;;;;;;;;;;5030244;28;20025;-57
2020/12/18 15:30:47;;;;;;;12.60;2.33;;;;;;;;;;5030451;28;20095;-57
2020/12/18 15:33:13;;;;;;;13.73;2.22;;;;;;;;;;5032578;28;20022;-56
2020/12/18 15:35:39;;;;;;;14.82;2.35;;;;;;;;;;5030262;28;20057;-57
2020/12/18 15:38:05;;;;;;;9.05;1.95;;;;;;;;;;5030229;28;20482;-57
2020/12/18 15:40:31;;;;;;;14.25;2.42;;;;;;;;;;5030479;28;20072;-56
2020/12/18 15:42:58;;;;;;;11.82;2.25;;;;;;;;;;5027513;28;20068;-57
2020/12/18 15:45:24;;;;;;;12.52;2.60;;;;;;;;;;5029357;28;20033;-56
2020/12/18 15:47:50;;;;;;;14.00;2.20;;;;;;;;;;5027350;28;20076;-56
2020/12/18 15:50:16;;;;;;;10.52;1.60;;;;;;;;;;5030732;28;20064;-54
2020/12/18 15:52:42;;;;;;;14.25;1.90;;;;;;;;;;5028791;28;20026;-56
2020/12/18 15:55:08;;;;;;;10.10;2.03;;;;;;;;;;5030801;28;20018;-58
2020/12/18 15:57:34;;;;;;;10.90;1.90;;;;;;;;;;5032736;28;20108;-56
2020/12/18 16:00:01;;;;;;;13.93;1.92;;;;;;;;;;5039872;28;20108;-57
2020/12/18 16:02:27;;;;;;;10.95;2.20;;;;;;;;;;5018064;28;20021;-60
2020/12/18 16:04:53;;;;;;;12.13;1.80;;;;;;;;;;5016810;28;20033;-60
2020/12/18 16:07:19;;;;;;;11.45;2.65;;;;;;;;;;5017444;28;20041;-60
2020/12/18 16:09:45;;;;;;;9.27;2.50;;;;;;;;;;5023454;28;20111;-61
2020/12/18 16:12:11;;;;;;;15.43;1.85;;;;;;;;;;5024339;28;20461;-61
2020/12/18 16:14:37;;;;;;;17.60;1.80;;;;;;;;;;5024742;28;20049;-60
2020/12/18 16:17:04;;;;;;;10.13;1.98;;;;;;;;;;5020681;28;20037;-61
2020/12/18 16:19:30;;;;;;;10.52;2.00;;;;;;;;;;5024926;28;20454;-61
2020/12/18 16:21:56;;;;;;;11.65;1.45;;;;;;;;;;5023508;28;20056;-60
2020/12/18 16:24:22;;;;;;;16.75;3.08;;;;;;;;;;5025434;28;20109;-55
2020/12/18 16:26:48;;;;;;;15.85;2.38;;;;;;;;;;5020300;28;20026;-57
2020/12/18 16:29:14;;;;;;;9.38;1.83;;;;;;;;;;5015983;28;20039;-59
2020/12/18 16:31:40;;;;;;;15.48;2.35;;;;;;;;;;5016130;28;20108;-58
2020/12/18 16:34:07;;;;;;;9.13;1.45;;;;;;;;;;5020577;28;20117;-57
2020/12/18 16:36:33;;;;;;;9.52;1.50;;;;;;;;;;5015282;28;20033;-58
2020/12/18 16:38:59;;;;;;;12.75;2.55;;;;;;;;;;5012730;28;20034;-58
2020/12/18 16:41:32;;;;;;;11.55;2.17;;;;;;;;;;5010134;28;20453;-58
2020/12/18 16:43:59;;;;;;;16.20;1.80;;;;;;;;;;5012392;28;20018;-58
2020/12/18 16:46:25;;;;;;;14.23;1.75;;;;;;;;;;5011907;28;20251;-56
2020/12/18 16:48:51;;;;;;;9.75;2.15;;;;;;;;;;5013492;28;20112;-56
2020/12/18 16:51:24;;;;;;;12.45;2.05;;;;;;;;;;5018883;28;20034;-58
2020/12/18 16:53:50;;;;;;;9.77;2.05;;;;;;;;;;5011746;28;20060;-58
2020/12/18 16:56:17;;;;;;;12.35;1.60;;;;;;;;;;5012342;28;20132;-57
2020/12/18 16:58:43;;;;;;;8.10;1.30;;;;;;;;;;5011301;28;20033;-57
2020/12/18 17:01:10;;;;;;;10.32;1.63;;;;;;;;;;5021280;28;20507;-58
2020/12/18 17:03:36;;;;;;;10.93;2.40;;;;;;;;;;5020024;28;20545;-58
2020/12/18 17:06:02;;;;;;;11.02;1.92;;;;;;;;;;5030797;28;20039;-57
2020/12/18 17:08:28;;;;;;;8.35;2.10;;;;;;;;;;5036757;28;20029;-58
2020/12/18 17:10:54;;;;;;;10.68;2.17;;;;;;;;;;5036526;28;20532;-58
2020/12/18 17:13:20;;;;;;;11.07;2.00;;;;;;;;;;5034483;28;20545;-58
2020/12/18 17:15:47;;;;;;;12.50;3.15;;;;;;;;;;5037412;28;20029;-58
2020/12/18 17:18:13;;;;;;;13.48;2.25;;;;;;;;;;5038555;28;20112;-57
2020/12/18 17:20:39;;;;;;;13.48;3.50;;;;;;;;;;5035667;28;20047;-58
2020/12/18 17:23:05;;;;;;;10.18;3.05;;;;;;;;;;5035846;28;20033;-58
2020/12/18 17:25:31;;;;;;;6.70;1.63;;;;;;;;;;5035350;28;20067;-58
2020/12/18 17:27:57;;;;;;;10.07;1.80;;;;;;;;;;5035200;28;20036;-58
2020/12/18 17:30:23;;;;;;;10.85;1.85;;;;;;;;;;5038270;28;20299;-58
2020/12/18 17:32:50;;;;;;;12.23;1.95;;;;;;;;;;5027794;28;20033;-58
2020/12/18 17:35:16;;;;;;;14.82;2.00;;;;;;;;;;5026159;28;20025;-58
2020/12/18 17:37:42;;;;;;;16.63;2.25;;;;;;;;;;5026609;28;20597;-57
2020/12/18 17:40:08;;;;;;;15.63;2.40;;;;;;;;;;5026590;28;20094;-58
2020/12/18 17:42:34;;;;;;;15.18;1.83;;;;;;;;;;5027181;28;20597;-57
2020/12/18 17:45:00;;;;;;;14.13;2.13;;;;;;;;;;5027426;28;20029;-58
2020/12/18 17:47:26;;;;;;;16.10;1.63;;;;;;;;;;5026163;28;20037;-56
2020/12/18 17:49:53;;;;;;;9.10;1.65;;;;;;;;;;5026451;28;20482;-58
2020/12/18 17:52:19;;;;;;;6.50;2.40;;;;;;;;;;5026649;28;20064;-58
2020/12/18 17:54:45;;;;;;;12.77;2.30;;;;;;;;;;5027063;28;20030;-58
2020/12/18 17:57:11;;;;;;;13.95;2.13;;;;;;;;;;5027392;28;20108;-58
2020/12/18 17:59:37;;;;;;;8.32;1.58;;;;;;;;;;5026143;28;20029;-58
2020/12/18 18:02:04;;;;;;;7.50;2.05;;;;;;;;;;5026231;28;20045;-58
2020/12/18 18:04:30;;;;;;;10.75;1.60;;;;;;;;;;5026428;28;20418;-57
2020/12/18 18:06:56;;;;;;;16.33;2.42;;;;;;;;;;5026704;28;20067;-58
2020/12/18 18:09:22;;;;;;;11.18;1.90;;;;;;;;;;5028045;28;20033;-58
2020/12/18 18:11:48;;;;;;;13.18;2.47;;;;;;;;;;5025799;28;20041;-59
2020/12/18 18:14:14;;;;;;;13.13;2.25;;;;;;;;;;5026378;28;20465;-58
2020/12/18 18:16:41;;;;;;;12.15;1.70;;;;;;;;;;5026210;28;20079;-58
2020/12/18 18:19:07;;;;;;;12.98;2.22;;;;;;;;;;5026354;28;20046;-58
2020/12/18 18:21:34;;;;;;;8.93;1.95;;;;;;;;;;5024223;28;20057;-58
2020/12/18 18:24:00;;;;;;;15.63;2.03;;;;;;;;;;5028923;28;20029;-58
2020/12/18 18:26:26;;;;;;;9.43;1.83;;;;;;;;;;5027245;28;20033;-58
2020/12/18 18:28:52;;;;;;;10.40;2.08;;;;;;;;;;5028637;28;20090;-58
2020/12/18 18:31:19;;;;;;;15.60;2.20;;;;;;;;;;5027181;28;20776;-58
2020/12/18 18:33:45;;;;;;;8.40;2.10;;;;;;;;;;5029412;28;20525;-58
2020/12/18 18:36:11;;;;;;;16.20;3.42;;;;;;;;;;5029689;28;20107;-58
2020/12/18 18:38:37;;;;;;;13.35;2.22;;;;;;;;;;5026941;28;20487;-58
2020/12/18 18:41:04;;;;;;;14.45;3.08;;;;;;;;;;5028565;28;20037;-58
2020/12/18 18:43:30;;;;;;;13.75;3.13;;;;;;;;;;5027076;28;20040;-58
2020/12/18 18:45:56;;;;;;;10.05;2.15;;;;;;;;;;5027417;28;20029;-58
2020/12/18 18:48:22;;;;;;;12.63;2.45;;;;;;;;;;5029549;28;20082;-58
2020/12/18 18:50:48;;;;;;;24.30;3.65;;;;;;;;;;5026992;28;20036;-58
2020/12/18 18:53:14;;;;;;;18.00;2.13;;;;;;;;;;5026558;28;20026;-58
2020/12/18 18:55:40;;;;;;;12.57;2.25;;;;;;;;;;5026784;28;20429;-58
2020/12/18 18:58:06;;;;;;;16.25;2.60;;;;;;;;;;5027446;28;20402;-58
2020/12/18 19:00:33;;;;;;;12.98;2.38;;;;;;;;;;5033433;28;20061;-58
2020/12/18 19:02:59;;;;;;;11.38;2.67;;;;;;;;;;5030972;28;20042;-58
2020/12/18 19:05:25;;;;;;;19.80;3.17;;;;;;;;;;5029304;28;20056;-58
2020/12/18 19:07:51;;;;;;;17.15;2.72;;;;;;;;;;5029859;28;20116;-58
2020/12/18 19:10:17;;;;;;;18.13;2.92;;;;;;;;;;5019251;28;20125;-58
2020/12/18 19:12:43;;;;;;;12.40;2.03;;;;;;;;;;5013981;28;20030;-58
2020/12/18 19:15:09;;;;;;;18.05;3.10;;;;;;;;;;5018186;28;20424;-58
2020/12/18 19:17:39;;;;;;;13.25;2.75;;;;;;;;;;5017736;28;20462;-59
2020/12/18 19:20:05;;;;;;;15.02;2.88;;;;;;;;;;5015562;28;20040;-59
2020/12/18 19:22:32;;;;;;;13.65;3.20;;;;;;;;;;5016338;28;20026;-60
2020/12/18 19:24:58;;;;;;;20.10;3.60;;;;;;;;;;5018021;28;20084;-60
2020/12/18 19:27:24;;;;;;;15.35;2.90;;;;;;;;;;5020425;28;20034;-59
2020/12/18 19:29:50;;;;;;;17.00;3.05;;;;;;;;;;5017339;28;20037;-60
2020/12/18 19:32:16;;;;;;;17.77;4.00;;;;;;;;;;5016710;28;20713;-60
2020/12/18 19:34:42;;;;;;;15.48;2.65;;;;;;;;;;5017979;28;20045;-59
2020/12/18 19:37:12;;;;;;;14.80;3.20;;;;;;;;;;5018469;28;20029;-60
2020/12/18 19:39:38;;;;;;;14.30;2.58;;;;;;;;;;5020607;28;20039;-60
2020/12/18 19:42:04;;;;;;;12.35;2.33;;;;;;;;;;5028006;28;20071;-59
2020/12/18 19:44:31;;;;;;;16.35;2.60;;;;;;;;;;5022096;28;20033;-59
2020/12/18 19:46:57;;;;;;;20.13;2.70;;;;;;;;;;5021370;28;20120;-59
2020/12/18 19:49:23;;;;;;;17.65;2.72;;;;;;;;;;5024742;28;20022;-59
2020/12/18 19:51:50;;;;;;;19.58;3.10;;;;;;;;;;5023112;28;20466;-59
2020/12/18 19:54:16;;;;;;;15.00;2.90;;;;;;;;;;5026817;28;20036;-60
2020/12/18 19:56:42;;;;;;;13.98;2.63;;;;;;;;;;5025584;28;20033;-59
2020/12/18 19:59:08;;;;;;;18.88;3.20;;;;;;;;;;5026656;28;20549;-59
2020/12/18 20:01:35;;;;;;;19.52;3.92;;;;;;;;;;5023101;28;20079;-60
2020/12/18 20:04:01;;;;;;;22.20;2.80;;;;;;;;;;5023000;28;20037;-60
2020/12/18 20:06:27;;;;;;;13.57;2.72;;;;;;;;;;5027248;28;21696;-59
2020/12/18 20:08:53;;;;;;;14.65;3.58;;;;;;;;;;5026259;28;20299;-59
2020/12/18 20:11:19;;;;;;;14.25;2.67;;;;;;;;;;5015492;28;20030;-60
2020/12/18 20:13:46;;;;;;;20.60;3.30;;;;;;;;;;5022538;28;20483;-60
2020/12/18 20:16:12;;;;;;;16.40;2.85;;;;;;;;;;5019868;28;20036;-60
2020/12/18 20:18:38;;;;;;;17.23;2.65;;;;;;;;;;5020354;28;20418;-60
2020/12/18 20:21:04;;;;;;;21.05;3.15;;;;;;;;;;5020742;28;20026;-59
2020/12/18 20:23:30;;;;;;;20.95;3.05;;;;;;;;;;5017845;28;20025;-59
2020/12/18 20:25:56;;;;;;;16.83;3.22;;;;;;;;;;5022339;28;20029;-59
2020/12/18 20:28:23;;;;;;;16.92;3.65;;;;;;;;;;5022660;28;20487;-59
2020/12/18 20:30:49;;;;;;;20.33;3.20;;;;;;;;;;5025002;28;20052;-60
2020/12/18 20:33:15;;;;;;;15.07;4.28;;;;;;;;;;5026910;28;20083;-60
2020/12/18 20:35:41;;;;;;;18.63;3.28;;;;;;;;;;5024646;28;20087;-59
2020/12/18 20:38:08;;;;;;;21.13;3.33;;;;;;;;;;5024733;28;20043;-59
2020/12/18 20:40:34;;;;;;;22.83;4.18;;;;;;;;;;5025036;28;20075;-59